Time;durP1;ratioP1;P1;durP2;ratioP2;P2;SDS_P1;SDS_P2;PMS_P1;PMS_P2;Temp;Humidity;BMP_temperature;BMP_pressure;BME280_temperature;BME280_humidity;BME280_pressure;Samples;Min_cycle;Max_cycle;Signal;HPM_P1;HPM_P2
2022/06/03 00:00:19;;;;;;;5.57;5.17;;;15.50;33.00;;;;;;4954405;28;20559;-68
2022/06/03 00:03:11;;;;;;;6.30;5.70;;;15.50;32.90;;;;;;4953934;28;20407;-68
2022/06/03 00:06:09;;;;;;;7.23;6.53;;;15.40;33.30;;;;;;4968557;28;20434;-68
2022/06/03 00:08:53;;;;;;;5.40;4.90;;;15.40;33.10;;;;;;4973417;28;20421;-68
2022/06/03 00:11:32;;;;;;;4.80;4.33;;;15.40;33.90;;;;;;4973053;28;20414;-68
2022/06/03 00:14:16;;;;;;;5.77;5.27;;;15.30;34.10;;;;;;4971932;28;20442;-68
2022/06/03 00:17:11;;;;;;;4.70;4.27;;;15.10;35.50;;;;;;4973178;28;20512;-67
2022/06/03 00:20:07;;;;;;;5.37;4.87;;;15.10;35.50;;;;;;4968013;28;20483;-67
2022/06/03 00:23:13;;;;;;;5.00;4.60;;;15.10;35.40;;;;;;4971758;28;20462;-67
2022/06/03 00:25:57;;;;;;;6.03;4.73;;;15.00;35.40;;;;;;4951515;29;20431;-67
2022/06/03 00:29:01;;;;;;;4.60;4.20;;;14.90;36.90;;;;;;4962149;28;20458;-67
2022/06/03 00:31:27;;;;;;;7.23;5.53;;;14.90;35.30;;;;;;4972452;28;20464;-68
2022/06/03 00:34:00;;;;;;;4.43;4.07;;;14.90;35.30;;;;;;4973051;28;20923;-67
2022/06/03 00:36:43;;;;;;;5.50;4.77;;;14.90;36.20;;;;;;4972698;28;20220;-67
2022/06/03 00:39:26;;;;;;;6.53;4.60;;;14.70;36.60;;;;;;4973263;28;20497;-67
2022/06/03 00:42:02;;;;;;;5.30;4.70;;;14.70;37.60;;;;;;4972998;28;20786;-68
2022/06/03 00:44:53;;;;;;;4.70;3.87;;;14.70;36.80;;;;;;4971682;28;20910;-68
2022/06/03 00:47:51;;;;;;;3.53;3.23;;;14.80;36.30;;;;;;4972676;28;20432;-68
2022/06/03 00:50:59;;;;;;;4.03;3.73;;;14.80;35.70;;;;;;4972844;28;20432;-68
2022/06/03 00:53:32;;;;;;;6.53;5.33;;;14.80;36.10;;;;;;4972895;28;20510;-68
2022/06/03 00:56:16;;;;;;;6.00;5.23;;;14.70;36.20;;;;;;4973132;28;20547;-67
2022/06/03 00:59:02;;;;;;;6.13;5.20;;;14.70;36.90;;;;;;4973018;28;20842;-68
2022/06/03 01:01:34;;;;;;;4.43;3.97;;;14.60;37.00;;;;;;4953330;28;20425;-68
2022/06/03 01:04:40;;;;;;;5.87;5.37;;;14.70;37.00;;;;;;4953530;28;20410;-68
2022/06/03 01:07:33;;;;;;;5.17;4.77;;;14.70;36.90;;;;;;4953588;28;20807;-68
2022/06/03 01:10:07;;;;;;;4.77;4.27;;;14.80;36.40;;;;;;4952220;28;20504;-68
2022/06/03 01:13:05;;;;;;;5.40;4.90;;;14.70;36.10;;;;;;4967308;28;20436;-67
2022/06/03 01:15:55;;;;;;;3.77;3.47;;;14.80;35.70;;;;;;4972473;28;20425;-67
2022/06/03 01:18:48;;;;;;;5.27;4.30;;;14.70;37.00;;;;;;4969371;28;20465;-68
2022/06/03 01:21:37;;;;;;;5.83;4.23;;;14.70;36.20;;;;;;4970022;28;20476;-67
2022/06/03 01:24:17;;;;;;;4.67;4.30;;;14.60;36.20;;;;;;4972857;28;20410;-68
2022/06/03 01:27:10;;;;;;;6.80;4.63;;;14.60;36.70;;;;;;4972808;28;20440;-68
2022/06/03 01:29:59;;;;;;;6.67;5.00;;;14.50;37.40;;;;;;4972404;28;20432;-68
2022/06/03 01:32:27;;;;;;;4.30;3.90;;;14.60;36.90;;;;;;4974559;28;20484;-68
2022/06/03 01:35:22;;;;;;;4.90;4.00;;;14.60;36.70;;;;;;4976137;28;20405;-68
2022/06/03 01:38:07;;;;;;;4.73;4.30;;;14.30;38.30;;;;;;4976234;28;20804;-69
2022/06/03 01:41:12;;;;;;;5.17;4.67;;;14.40;38.00;;;;;;4976316;28;20429;-67
2022/06/03 01:44:03;;;;;;;5.53;4.80;;;14.10;39.80;;;;;;4956677;28;20938;-68
2022/06/03 01:46:31;;;;;;;6.77;5.37;;;14.00;40.40;;;;;;4957725;28;20465;-68
2022/06/03 01:48:57;;;;;;;5.80;5.30;;;13.90;40.50;;;;;;4975837;28;20609;-68
2022/06/03 01:51:50;;;;;;;7.70;5.23;;;14.00;39.80;;;;;;4975791;28;20413;-68
2022/06/03 01:54:18;;;;;;;7.50;4.80;;;14.00;39.10;;;;;;4975625;28;20193;-68
2022/06/03 01:57:04;;;;;;;6.90;6.17;;;14.00;39.70;;;;;;4992622;22;20504;-66
2022/06/03 01:59:45;;;;;;;5.97;4.93;;;13.80;40.50;;;;;;4956686;29;20465;-66
2022/06/03 02:02:54;;;;;;;4.90;4.40;;;13.70;42.00;;;;;;4956132;29;20407;-66
2022/06/03 02:05:58;;;;;;;5.37;4.87;;;13.70;41.60;;;;;;4962596;28;20456;-67
2022/06/03 02:08:39;;;;;;;8.63;5.53;;;13.70;41.50;;;;;;4953990;29;20475;-66
2022/06/03 02:11:28;;;;;;;9.10;5.47;;;13.70;41.50;;;;;;4954094;29;20903;-66
2022/06/03 02:14:29;;;;;;;6.67;5.50;;;13.60;41.60;;;;;;4955680;29;20777;-67
2022/06/03 02:17:04;;;;;;;6.00;5.50;;;13.50;43.20;;;;;;4953595;28;20823;-66
2022/06/03 02:19:57;;;;;;;6.67;6.07;;;13.50;43.40;;;;;;4935674;29;20555;-67
2022/06/03 02:22:56;;;;;;;6.50;5.90;;;13.50;43.50;;;;;;4936606;29;20419;-66
2022/06/03 02:25:33;;;;;;;6.00;5.30;;;13.60;42.80;;;;;;4936801;29;20415;-70
2022/06/03 02:28:22;;;;;;;7.07;6.03;;;13.70;41.80;;;;;;4936742;29;20441;-68
2022/06/03 02:31:27;;;;;;;8.50;6.37;;;13.70;42.20;;;;;;4954622;29;20516;-69
2022/06/03 02:34:19;;;;;;;7.80;7.10;;;13.60;42.90;;;;;;4955956;29;20413;-69
2022/06/03 02:37:25;;;;;;;6.47;5.77;;;13.50;43.50;;;;;;4955740;28;20461;-69
2022/06/03 02:40:02;;;;;;;5.80;5.30;;;13.50;44.40;;;;;;4956018;29;20418;-68
2022/06/03 02:42:50;;;;;;;6.53;5.77;;;13.50;44.40;;;;;;4940988;29;20440;-68
2022/06/03 02:45:57;;;;;;;8.00;6.23;;;13.40;44.30;;;;;;4936754;29;20789;-69
2022/06/03 02:48:40;;;;;;;7.53;6.50;;;13.30;45.00;;;;;;4936261;28;20452;-67
2022/06/03 02:51:17;;;;;;;6.80;6.10;;;13.30;45.00;;;;;;4936464;29;20556;-67
2022/06/03 02:54:04;;;;;;;7.23;6.17;;;13.30;45.10;;;;;;4941909;29;20788;-67
2022/06/03 02:57:02;;;;;;;6.33;5.83;;;13.30;44.90;;;;;;4955529;28;20519;-68
2022/06/03 03:00:08;;;;;;;6.03;5.40;;;13.50;44.00;;;;;;4952445;28;20932;-68
2022/06/03 03:02:49;;;;;;;6.13;5.50;;;13.60;42.90;;;;;;4947197;29;20433;-68
2022/06/03 03:05:42;;;;;;;7.23;6.63;;;13.60;42.90;;;;;;4955381;29;20412;-69
2022/06/03 03:08:27;;;;;;;7.10;5.93;;;13.40;44.30;;;;;;4947139;28;20482;-68
2022/06/03 03:11:30;;;;;;;8.50;6.30;;;13.40;44.40;;;;;;4917198;29;20438;-68
2022/06/03 03:14:17;;;;;;;6.97;6.27;;;13.50;44.20;;;;;;4917248;29;20470;-67
2022/06/03 03:16:55;;;;;;;9.03;5.83;;;13.50;43.40;;;;;;4947811;28;20554;-68
2022/06/03 03:19:42;;;;;;;6.77;6.10;;;13.60;43.60;;;;;;4933076;29;20444;-70
2022/06/03 03:22:35;;;;;;;11.80;7.50;;;13.70;42.10;;;;;;4953747;29;20837;-69
2022/06/03 03:25:31;;;;;;;6.30;5.70;;;13.80;42.00;;;;;;4954891;29;20513;-69
2022/06/03 03:28:19;;;;;;;6.00;5.30;;;13.90;41.50;;;;;;4954779;28;20918;-69
2022/06/03 03:31:14;;;;;;;6.90;6.03;;;13.90;41.60;;;;;;4949668;29;20427;-69
2022/06/03 03:34:04;;;;;;;6.00;5.43;;;13.90;41.30;;;;;;4935532;29;20403;-69
2022/06/03 03:36:48;;;;;;;5.20;4.80;;;14.00;40.90;;;;;;4935437;29;20811;-68
2022/06/03 03:39:51;;;;;;;6.20;4.97;;;14.00;40.70;;;;;;4935748;29;20411;-69
2022/06/03 03:42:56;;;;;;;5.60;5.00;;;14.10;40.70;;;;;;4938085;29;20430;-68
2022/06/03 03:45:55;;;;;;;6.60;5.20;;;14.10;40.10;;;;;;4954434;28;20790;-69
2022/06/03 03:48:58;;;;;;;5.70;5.13;;;14.30;40.00;;;;;;4953190;29;20426;-69
2022/06/03 03:52:15;;;;;;;9.73;5.80;;;14.20;39.90;;;;;;4954178;28;20472;-69
2022/06/03 03:55:11;;;;;;;5.73;5.10;;;14.30;40.00;;;;;;4947354;28;20430;-69
2022/06/03 03:58:13;;;;;;;4.10;3.80;;;14.40;40.10;;;;;;4934977;29;20529;-69
2022/06/03 04:01:01;;;;;;;5.13;4.73;;;14.40;40.10;;;;;;4935391;29;20871;-68
2022/06/03 04:04:04;;;;;;;5.37;4.87;;;14.60;39.10;;;;;;4933652;29;20550;-69
2022/06/03 04:06:54;;;;;;;7.53;6.57;;;14.70;38.70;;;;;;4938937;28;20974;-69
2022/06/03 04:09:38;;;;;;;4.83;4.43;;;14.70;38.50;;;;;;4935140;29;20430;-69
2022/06/03 04:12:38;;;;;;;6.87;4.60;;;14.80;38.30;;;;;;4934762;29;20411;-68
2022/06/03 04:15:28;;;;;;;5.20;4.37;;;14.90;37.30;;;;;;4935294;29;20425;-68
2022/06/03 04:18:09;;;;;;;5.57;4.80;;;15.00;36.70;;;;;;4935197;29;20449;-69
2022/06/03 04:21:19;;;;;;;5.90;5.10;;;15.10;36.40;;;;;;4935018;29;20481;-68
2022/06/03 04:24:05;;;;;;;5.73;5.23;;;15.10;35.80;;;;;;4929487;29;20427;-68
2022/06/03 04:26:54;;;;;;;5.77;5.17;;;14.80;36.10;;;;;;4934932;29;20575;-68
2022/06/03 04:29:38;;;;;;;8.03;5.77;;;14.50;38.00;;;;;;4934971;29;20399;-68
2022/06/03 04:32:03;;;;;;;9.73;5.40;;;14.70;38.10;;;;;;4915868;29;20797;-68
2022/06/03 04:34:47;;;;;;;8.53;6.17;;;14.90;37.30;;;;;;4932578;29;20431;-68
2022/06/03 04:37:47;;;;;;;16.90;10.30;;;15.00;36.70;;;;;;4934762;29;20218;-68
2022/06/03 04:40:47;;;;;;;5.60;4.90;;;15.10;36.60;;;;;;4935153;29;21006;-69
2022/06/03 04:43:30;;;;;;;5.30;4.90;;;15.40;35.70;;;;;;4944683;29;20818;-69
2022/06/03 04:46:33;;;;;;;8.50;6.00;;;15.60;34.80;;;;;;4953900;28;20428;-68
2022/06/03 04:49:28;;;;;;;7.37;6.67;;;15.80;33.60;;;;;;4954240;28;20483;-68
2022/06/03 04:52:11;;;;;;;7.77;6.37;;;16.00;32.60;;;;;;4953405;28;20621;-68
2022/06/03 04:55:01;;;;;;;6.77;6.23;;;16.50;30.80;;;;;;4946689;29;20430;-69
2022/06/03 04:57:44;;;;;;;8.20;7.67;;;17.60;30.20;;;;;;4934242;29;20525;-68
2022/06/03 05:00:46;;;;;;;10.10;9.47;;;19.00;26.00;;;;;;4934428;29;20411;-68
2022/06/03 05:03:49;;;;;;;12.20;11.43;;;20.00;22.70;;;;;;4934556;29;20418;-68
2022/06/03 05:06:49;;;;;;;12.33;11.73;;;21.00;20.10;;;;;;4939499;29;20843;-71
2022/06/03 05:09:36;;;;;;;14.27;13.23;;;22.30;18.10;;;;;;4939489;29;20417;-70
2022/06/03 05:12:25;;;;;;;14.57;13.87;;;23.70;15.80;;;;;;4938631;29;20920;-69
2022/06/03 05:15:29;;;;;;;15.97;15.07;;;25.00;15.50;;;;;;4938469;29;20509;-69
2022/06/03 05:18:14;;;;;;;16.73;15.93;;;26.50;11.80;;;;;;4897992;29;20455;-69
2022/06/03 05:21:04;;;;;;;16.67;15.80;;;27.50;10.80;;;;;;4879183;29;20505;-72
2022/06/03 05:23:41;;;;;;;14.90;14.30;;;27.20;9.10;;;;;;4924301;29;20431;-72
2022/06/03 05:26:29;;;;;;;18.90;17.27;;;26.60;10.90;;;;;;4919053;29;21082;-70
2022/06/03 05:29:17;;;;;;;18.83;17.60;;;27.80;7.80;;;;;;4918926;29;20435;-68
2022/06/03 05:32:10;;;;;;;18.00;17.20;;;27.70;8.80;;;;;;4972673;28;21009;-69
2022/06/03 05:35:02;;;;;;;18.20;17.40;;;28.70;7.70;;;;;;4956915;29;20437;-69
2022/06/03 05:37:46;;;;;;;17.37;16.57;;;29.80;5.20;;;;;;4956634;28;20548;-70
2022/06/03 05:40:35;;;;;;;17.10;16.30;;;31.00;4.80;;;;;;4957391;28;20464;-69
2022/06/03 05:43:01;;;;;;;17.77;17.03;;;30.90;3.90;;;;;;4952204;28;21000;-69
2022/06/03 05:45:47;;;;;;;17.10;16.40;;;31.60;2.20;;;;;;4937599;29;20414;-69
2022/06/03 05:48:39;;;;;;;17.50;16.60;;;30.80;3.40;;;;;;4939159;29;20668;-71
2022/06/03 05:51:13;;;;;;;17.93;17.10;;;31.40;3.10;;;;;;4925611;29;20421;-69
2022/06/03 05:54:00;;;;;;;17.37;16.47;;;32.30;2.60;;;;;;4956612;28;20504;-70
2022/06/03 05:56:43;;;;;;;17.73;16.87;;;33.20;1.10;;;;;;4948661;28;20469;-69
2022/06/03 05:59:29;;;;;;;18.10;17.20;;;32.70;1.00;;;;;;4937142;29;20910;-69
2022/06/03 06:02:13;;;;;;;17.13;16.37;;;33.40;1.00;;;;;;4929394;29;20476;-69
2022/06/03 06:04:57;;;;;;;17.20;16.40;;;33.60;1.00;;;;;;4956360;28;20421;-69
2022/06/03 06:07:44;;;;;;;17.87;17.07;;;34.30;1.00;;;;;;4956322;28;20525;-69
2022/06/03 06:10:33;;;;;;;17.70;16.80;;;30.80;1.00;;;;;;4956402;29;20425;-70
2022/06/03 06:13:10;;;;;;;17.60;16.70;;;31.50;1.40;;;;;;4950559;28;20782;-71
2022/06/03 06:15:53;;;;;;;17.90;17.10;;;32.40;1.00;;;;;;4936925;29;20509;-70
2022/06/03 06:18:40;;;;;;;18.63;17.57;;;31.80;1.00;;;;;;4936327;29;20418;-70
2022/06/03 06:21:27;;;;;;;17.33;16.53;;;32.70;1.00;;;;;;4936877;29;20433;-70
2022/06/03 06:24:08;;;;;;;16.23;15.53;;;33.30;1.00;;;;;;4935638;29;20567;-71
2022/06/03 06:27:02;;;;;;;16.80;16.10;;;34.00;1.00;;;;;;4952475;28;20457;-70
2022/06/03 06:29:45;;;;;;;17.63;16.90;;;33.20;1.00;;;;;;4955954;28;20502;-69
2022/06/03 06:32:31;;;;;;;15.77;15.17;;;32.30;1.00;;;;;;4955763;29;20567;-71
2022/06/03 06:35:18;;;;;;;16.73;16.03;;;33.20;1.00;;;;;;4955905;28;20416;-70
2022/06/03 06:38:19;;;;;;;16.50;15.70;;;33.80;1.00;;;;;;4944175;28;21009;-69
2022/06/03 06:41:12;;;;;;;17.03;16.13;;;34.20;1.00;;;;;;4936682;29;20517;-70
2022/06/03 06:43:48;;;;;;;16.67;15.83;;;35.10;1.00;;;;;;4935287;29;20461;-68
2022/06/03 06:46:25;;;;;;;18.00;17.10;;;35.00;1.00;;;;;;4936582;29;20430;-71
2022/06/03 06:49:18;;;;;;;16.87;16.10;;;34.80;1.00;;;;;;4939461;29;20421;-70
2022/06/03 06:51:56;;;;;;;18.37;17.03;;;34.60;1.00;;;;;;4956099;28;20414;-70
2022/06/03 06:54:36;;;;;;;17.40;16.47;;;34.40;1.00;;;;;;4955770;28;20505;-69
2022/06/03 06:57:19;;;;;;;17.37;16.47;;;33.90;1.00;;;;;;4955219;28;20843;-69
2022/06/03 07:00:00;;;;;;;18.63;17.53;;;32.90;1.00;;;;;;4955213;28;20445;-69
2022/06/03 07:02:50;;;;;;;18.23;17.30;;;32.40;1.00;;;;;;4936817;29;20430;-69
2022/06/03 07:05:41;;;;;;;17.80;16.83;;;32.50;1.00;;;;;;4942967;29;20529;-69
2022/06/03 07:08:15;;;;;;;17.53;16.73;;;32.90;1.00;;;;;;4943063;28;20516;-69
2022/06/03 07:10:47;;;;;;;17.73;16.83;;;33.20;1.00;;;;;;4950416;29;20425;-69
2022/06/03 07:13:18;;;;;;;17.60;16.80;;;31.80;1.00;;;;;;4931546;29;20431;-69
2022/06/03 07:16:15;;;;;;;17.77;16.77;;;32.40;1.00;;;;;;4932449;29;20439;-67
2022/06/03 07:22:13;;;;;;;18.60;17.43;;;32.10;1.00;;;;;;4913885;29;20945;-69
2022/06/03 07:24:50;;;;;;;17.77;16.87;;;33.50;1.00;;;;;;4909973;29;20809;-68
2022/06/03 07:27:29;;;;;;;17.73;16.53;;;34.30;1.00;;;;;;4911925;29;20482;-68
2022/06/03 07:30:08;;;;;;;17.10;16.40;;;35.30;1.00;;;;;;4910222;29;20479;-69
2022/06/03 07:32:57;;;;;;;18.77;17.37;;;35.80;1.00;;;;;;4930921;29;20525;-68
2022/06/03 07:35:38;;;;;;;16.50;15.70;;;36.20;1.00;;;;;;4932010;29;20427;-67
2022/06/03 07:38:25;;;;;;;16.17;15.47;;;36.60;1.00;;;;;;4922091;29;20523;-68
2022/06/03 07:41:03;;;;;;;16.90;16.20;;;36.10;1.00;;;;;;4924762;29;20426;-70
2022/06/03 07:44:18;;;;;;;17.00;16.20;;;35.80;1.00;;;;;;4931217;29;20426;-69
2022/06/03 07:46:54;;;;;;;17.30;16.60;;;36.30;1.00;;;;;;4929914;28;20459;-68
2022/06/03 07:49:22;;;;;;;18.03;17.23;;;35.50;1.00;;;;;;4950666;28;20425;-68
2022/06/03 07:51:53;;;;;;;20.53;19.53;;;35.90;1.00;;;;;;4950084;28;20509;-68
2022/06/03 07:54:30;;;;;;;17.67;16.03;;;36.30;1.00;;;;;;4942308;28;20443;-69
2022/06/03 07:57:02;;;;;;;17.47;16.67;;;36.50;1.00;;;;;;4913252;29;21031;-69
2022/06/03 07:59:32;;;;;;;18.10;17.40;;;36.50;1.00;;;;;;4928745;29;20440;-68
2022/06/03 08:02:15;;;;;;;17.33;16.53;;;34.40;1.00;;;;;;4948359;29;20558;-68
2022/06/03 08:04:41;;;;;;;18.73;17.67;;;34.80;1.00;;;;;;4948966;29;20457;-69
2022/06/03 08:12:58;;;;;;;18.37;17.57;;;32.10;1.00;;;;;;4912750;29;20421;-68
2022/06/03 08:15:29;;;;;;;16.97;16.27;;;29.80;4.20;;;;;;4911910;29;20781;-70
2022/06/03 08:17:55;;;;;;;17.83;17.03;;;29.90;3.70;;;;;;4942822;28;20487;-69
2022/06/03 08:20:23;;;;;;;17.50;16.70;;;28.70;5.40;;;;;;4912285;29;20434;-69
2022/06/03 08:22:50;;;;;;;17.70;16.90;;;28.30;6.70;;;;;;4913870;29;20861;-70
2022/06/03 08:25:21;;;;;;;18.00;17.10;;;29.60;5.20;;;;;;4930082;29;20434;-71
2022/06/03 08:27:49;;;;;;;16.60;15.90;;;29.80;4.20;;;;;;4931690;29;21054;-69
2022/06/03 08:30:20;;;;;;;18.50;17.63;;;28.70;5.80;;;;;;4930547;29;20430;-68
2022/06/03 08:32:49;;;;;;;17.47;16.70;;;29.40;5.40;;;;;;4911698;29;20489;-69
2022/06/03 08:35:20;;;;;;;18.70;17.50;;;29.20;5.50;;;;;;4926112;29;20483;-69
2022/06/03 08:37:51;;;;;;;16.80;16.10;;;28.20;6.50;;;;;;4950195;28;20473;-69
2022/06/03 08:40:27;;;;;;;17.80;16.90;;;28.30;7.10;;;;;;4951307;28;20417;-69
2022/06/03 08:43:02;;;;;;;17.27;16.30;;;27.70;7.80;;;;;;4939834;29;20425;-70
2022/06/03 08:45:39;;;;;;;17.40;16.30;;;27.80;8.60;;;;;;4936990;29;20469;-69
2022/06/03 08:48:11;;;;;;;16.83;15.93;;;27.60;8.30;;;;;;4948462;29;20453;-70
2022/06/03 08:50:53;;;;;;;17.70;16.80;;;28.00;7.60;;;;;;4955609;28;20483;-67
2022/06/03 08:53:23;;;;;;;17.73;16.93;;;27.80;7.90;;;;;;4949965;28;20874;-67
2022/06/03 08:56:12;;;;;;;16.60;15.90;;;27.20;9.30;;;;;;4936585;29;20426;-69
2022/06/03 08:58:57;;;;;;;16.20;15.47;;;26.80;9.90;;;;;;4940570;29;20467;-71
2022/06/03 09:01:27;;;;;;;16.30;15.60;;;26.30;11.10;;;;;;4938726;29;20765;-69
2022/06/03 09:04:19;;;;;;;15.90;15.20;;;25.50;11.70;;;;;;4938942;29;20422;-72
2022/06/03 09:07:03;;;;;;;14.83;14.13;;;25.30;12.80;;;;;;4937111;29;20450;-66
2022/06/03 09:09:51;;;;;;;26.37;16.20;;;25.20;13.70;;;;;;4947517;29;20432;-67
2022/06/03 09:12:28;;;;;;;14.80;14.10;;;25.40;13.40;;;;;;4956469;28;20947;-69
2022/06/03 09:14:56;;;;;;;14.57;13.87;;;25.60;12.90;;;;;;4956179;29;20432;-70
2022/06/03 09:17:48;;;;;;;15.00;14.30;;;25.90;12.80;;;;;;4955567;28;20480;-69
2022/06/03 09:20:39;;;;;;;14.67;14.07;;;26.00;11.50;;;;;;4954863;28;20927;-70
2022/06/03 09:23:08;;;;;;;14.53;13.80;;;26.10;11.50;;;;;;4955549;28;20421;-69
2022/06/03 09:25:41;;;;;;;15.20;14.40;;;26.30;11.70;;;;;;4955116;28;20942;-69
2022/06/03 09:28:12;;;;;;;14.87;14.17;;;26.40;11.70;;;;;;4955954;28;20499;-69
2022/06/03 09:30:39;;;;;;;15.80;15.00;;;25.60;13.90;;;;;;4942561;28;20505;-66
2022/06/03 09:33:07;;;;;;;15.07;14.33;;;25.90;14.00;;;;;;4950769;29;20807;-69
2022/06/03 09:35:36;;;;;;;16.63;15.77;;;25.90;13.50;;;;;;4954717;28;20464;-68
2022/06/03 09:38:02;;;;;;;14.00;13.37;;;25.70;14.20;;;;;;4940131;29;20608;-69
2022/06/03 09:40:35;;;;;;;15.20;14.47;;;25.90;14.00;;;;;;4955946;28;20425;-69
2022/06/03 09:43:15;;;;;;;15.50;14.80;;;25.60;14.00;;;;;;4952475;28;20979;-68
2022/06/03 09:45:45;;;;;;;14.10;13.40;;;25.70;14.50;;;;;;4936261;29;21280;-69
2022/06/03 09:48:11;;;;;;;14.83;13.93;;;25.20;14.40;;;;;;4940384;28;20442;-69
2022/06/03 09:50:37;;;;;;;13.73;13.13;;;25.40;14.90;;;;;;4939414;29;20953;-68
2022/06/03 09:53:08;;;;;;;14.73;14.03;;;25.50;14.40;;;;;;4937677;28;20191;-69
2022/06/03 09:55:37;;;;;;;14.20;13.53;;;25.60;14.60;;;;;;4934492;28;20217;-68
2022/06/03 09:58:05;;;;;;;13.80;13.20;;;25.70;14.10;;;;;;4933353;29;20532;-68
2022/06/03 10:00:45;;;;;;;14.20;13.60;;;25.90;13.90;;;;;;4933328;29;20489;-69
2022/06/03 10:03:11;;;;;;;15.50;14.63;;;26.10;14.00;;;;;;4940158;29;20452;-68
2022/06/03 10:05:37;;;;;;;15.20;14.40;;;26.10;14.00;;;;;;4944337;28;20445;-69
2022/06/03 10:08:06;;;;;;;15.73;14.80;;;26.10;14.20;;;;;;4932970;29;20462;-68
2022/06/03 10:13:17;;;;;;;15.00;14.40;;;26.10;14.30;;;;;;4938845;29;20454;-70
2022/06/03 10:15:53;;;;;;;15.47;14.83;;;26.30;13.90;;;;;;4947258;29;20431;-69
2022/06/03 10:18:25;;;;;;;16.83;16.03;;;26.50;13.50;;;;;;4937885;29;20526;-69
2022/06/03 10:21:16;;;;;;;16.90;16.10;;;26.70;13.30;;;;;;4937257;29;20429;-69
2022/06/03 10:23:46;;;;;;;16.33;15.43;;;26.70;13.40;;;;;;4932822;29;20442;-68
2022/06/03 10:26:22;;;;;;;17.10;15.90;;;27.00;12.50;;;;;;4935735;29;20453;-69
2022/06/03 10:28:50;;;;;;;15.47;14.77;;;26.90;12.90;;;;;;4937127;29;20433;-69
2022/06/03 10:31:19;;;;;;;16.37;15.57;;;27.10;12.30;;;;;;4936588;29;20446;-68
2022/06/03 10:33:52;;;;;;;16.33;15.40;;;27.10;12.10;;;;;;4936970;29;20776;-69
2022/06/03 10:36:21;;;;;;;15.93;15.13;;;27.10;12.10;;;;;;4936690;29;20471;-69
2022/06/03 10:38:48;;;;;;;17.23;15.80;;;26.90;12.80;;;;;;4936884;29;20920;-68
2022/06/03 10:41:14;;;;;;;15.27;14.57;;;27.00;12.70;;;;;;4953508;29;20519;-68
2022/06/03 10:43:41;;;;;;;16.33;15.37;;;26.90;12.80;;;;;;4954278;28;20429;-69
2022/06/03 10:46:16;;;;;;;14.30;13.70;;;26.70;12.90;;;;;;4955748;28;20202;-73
2022/06/03 10:48:42;;;;;;;15.67;14.97;;;26.90;12.80;;;;;;4955938;28;20435;-71
2022/06/03 11:02:45;;;;;;;17.13;16.43;;;27.90;11.10;;;;;;4930641;29;20530;-70
2022/06/03 11:05:28;;;;;;;17.33;16.50;;;27.80;11.30;;;;;;4936227;29;20497;-72
2022/06/03 11:08:02;;;;;;;17.13;16.27;;;27.40;10.80;;;;;;4937765;29;20213;-70
2022/06/03 11:10:40;;;;;;;16.83;16.10;;;27.50;10.90;;;;;;4937623;28;20814;-70
2022/06/03 11:13:09;;;;;;;16.77;16.00;;;27.20;11.50;;;;;;4936026;29;20506;-70
2022/06/03 11:15:36;;;;;;;17.30;16.23;;;27.40;11.70;;;;;;4936095;29;20470;-69
2022/06/03 11:18:18;;;;;;;17.07;16.27;;;27.60;10.70;;;;;;4935940;29;20473;-70
2022/06/03 11:20:46;;;;;;;17.10;16.30;;;28.10;10.40;;;;;;4952387;29;20438;-71
2022/06/03 11:23:13;;;;;;;16.60;15.80;;;28.00;10.10;;;;;;4955161;29;20472;-70
2022/06/03 11:25:48;;;;;;;15.43;14.83;;;27.70;10.70;;;;;;4955460;28;20413;-69
2022/06/03 11:28:28;;;;;;;16.00;15.30;;;27.30;11.10;;;;;;4955147;28;20452;-71
2022/06/03 11:31:04;;;;;;;16.60;15.80;;;27.00;11.30;;;;;;4950172;28;20912;-72
2022/06/03 11:33:46;;;;;;;16.80;15.73;;;27.20;11.50;;;;;;4939480;29;20452;-69
2022/06/03 11:36:20;;;;;;;16.23;14.20;;;27.40;12.30;;;;;;4954837;28;20480;-71
2022/06/03 11:38:52;;;;;;;15.23;14.53;;;27.50;14.70;;;;;;4954934;28;20417;-70
2022/06/03 11:41:55;;;;;;;14.43;13.87;;;27.70;12.40;;;;;;4954659;29;20417;-69
2022/06/03 11:44:44;;;;;;;15.70;14.80;;;28.00;12.60;;;;;;4952620;28;20433;-70
2022/06/03 11:47:33;;;;;;;15.97;15.27;;;28.60;11.40;;;;;;4955274;28;20460;-70
2022/06/03 11:49:58;;;;;;;15.27;14.57;;;29.00;12.20;;;;;;4916364;29;20431;-71
2022/06/03 11:52:24;;;;;;;15.97;15.27;;;29.10;11.10;;;;;;4917303;29;20424;-71
2022/06/03 11:54:51;;;;;;;17.00;16.20;;;29.10;10.80;;;;;;4917757;29;20183;-70
2022/06/03 11:57:18;;;;;;;16.00;15.20;;;29.10;9.60;;;;;;4916744;29;20260;-69
2022/06/03 12:00:06;;;;;;;16.03;15.33;;;29.20;10.40;;;;;;4917063;29;20770;-69
2022/06/03 12:02:45;;;;;;;15.70;15.00;;;29.50;8.70;;;;;;4931740;29;20430;-70
2022/06/03 12:05:24;;;;;;;15.83;15.13;;;29.50;8.90;;;;;;4955170;28;20417;-71
2022/06/03 12:08:09;;;;;;;16.57;15.67;;;28.90;9.50;;;;;;4954646;28;20805;-70
2022/06/03 12:11:01;;;;;;;17.07;16.37;;;29.00;9.60;;;;;;4955058;29;20421;-70
2022/06/03 12:13:31;;;;;;;17.00;16.30;;;28.80;8.30;;;;;;4954570;28;20442;-70
2022/06/03 12:15:56;;;;;;;17.33;16.53;;;29.00;8.80;;;;;;4953201;28;20421;-69
2022/06/03 12:18:31;;;;;;;16.60;15.90;;;28.90;9.00;;;;;;4935277;29;20422;-68
2022/06/03 12:20:58;;;;;;;16.90;16.20;;;28.70;10.00;;;;;;4935308;29;20561;-69
2022/06/03 12:23:23;;;;;;;17.00;16.07;;;28.70;10.40;;;;;;4935096;29;20419;-70
2022/06/03 12:25:48;;;;;;;17.33;16.43;;;29.00;10.10;;;;;;4935265;29;20426;-70
2022/06/03 12:28:30;;;;;;;17.30;16.40;;;29.20;9.90;;;;;;4935228;29;20174;-69
2022/06/03 12:31:07;;;;;;;16.13;15.47;;;29.20;9.60;;;;;;4939243;29;20193;-70
2022/06/03 12:33:43;;;;;;;16.70;15.87;;;29.10;9.30;;;;;;4942206;29;20426;-70
2022/06/03 12:36:34;;;;;;;16.50;15.60;;;28.80;10.20;;;;;;4936697;29;20842;-70
2022/06/03 12:39:05;;;;;;;16.20;15.20;;;28.90;9.90;;;;;;4939690;29;20434;-70
2022/06/03 12:41:46;;;;;;;15.73;15.03;;;28.40;10.50;;;;;;4943867;29;20433;-71
2022/06/03 12:44:41;;;;;;;18.70;17.10;;;28.50;10.20;;;;;;4945699;29;20636;-71
2022/06/03 12:47:28;;;;;;;16.10;15.40;;;28.60;10.10;;;;;;4939373;29;20496;-70
2022/06/03 12:50:15;;;;;;;16.33;15.43;;;28.40;10.40;;;;;;4938116;29;20855;-70
2022/06/03 12:52:44;;;;;;;17.73;16.73;;;28.40;10.90;;;;;;4935857;29;20952;-71
2022/06/03 12:55:36;;;;;;;15.57;14.67;;;28.30;10.90;;;;;;4945866;29;20435;-71
2022/06/03 12:58:23;;;;;;;15.50;14.80;;;28.20;11.20;;;;;;4922811;29;20475;-71
2022/06/03 13:00:51;;;;;;;15.90;15.00;;;28.20;12.70;;;;;;4930453;29;20434;-70
2022/06/03 13:03:16;;;;;;;14.63;13.83;;;28.00;13.10;;;;;;4934289;29;20440;-71
2022/06/03 13:05:47;;;;;;;16.03;15.23;;;28.00;13.50;;;;;;4934615;29;20458;-70
2022/06/03 13:08:28;;;;;;;15.50;14.70;;;28.10;14.00;;;;;;4934589;29;20222;-69
2022/06/03 13:11:08;;;;;;;15.40;14.70;;;28.20;13.90;;;;;;4917514;29;20427;-70
2022/06/03 13:13:41;;;;;;;15.27;14.57;;;28.40;12.80;;;;;;4915334;29;20415;-71
2022/06/03 13:16:20;;;;;;;14.47;13.87;;;28.70;12.90;;;;;;4925829;29;20485;-70
2022/06/03 13:18:52;;;;;;;14.60;14.00;;;28.70;12.90;;;;;;4918059;29;20786;-72
2022/06/03 13:21:24;;;;;;;14.50;13.80;;;28.80;13.00;;;;;;4929406;29;20418;-72
2022/06/03 13:23:50;;;;;;;15.17;14.27;;;28.70;12.90;;;;;;4936771;29;20429;-71
2022/06/03 13:26:21;;;;;;;13.97;13.27;;;28.60;13.40;;;;;;4945039;29;20449;-71
2022/06/03 13:28:53;;;;;;;15.70;14.90;;;28.40;13.70;;;;;;4937389;29;20552;-71
2022/06/03 13:31:26;;;;;;;13.80;13.10;;;28.10;15.50;;;;;;4937703;29;20493;-71
2022/06/03 13:36:50;;;;;;;15.03;14.23;;;27.70;14.80;;;;;;4918948;29;20467;-68
2022/06/03 13:39:28;;;;;;;13.17;12.37;;;27.40;16.80;;;;;;4918876;29;20415;-70
2022/06/03 13:45:01;;;;;;;13.00;12.17;;;27.10;16.20;;;;;;4937792;29;20461;-68
2022/06/03 13:47:45;;;;;;;13.87;13.13;;;26.90;16.30;;;;;;4937679;29;20445;-67
2022/06/03 13:50:14;;;;;;;12.40;11.70;;;26.90;16.50;;;;;;4937634;29;20789;-67
2022/06/03 13:52:53;;;;;;;12.60;12.00;;;27.00;17.00;;;;;;4937680;29;20778;-67
2022/06/03 13:55:37;;;;;;;12.47;11.80;;;27.00;16.50;;;;;;4937816;29;20418;-68
2022/06/03 13:58:18;;;;;;;13.17;12.10;;;27.00;17.80;;;;;;4938150;29;20477;-68
2022/06/03 14:00:49;;;;;;;11.90;11.30;;;27.00;17.90;;;;;;4937798;29;20693;-67
2022/06/03 14:03:22;;;;;;;12.87;12.27;;;27.00;18.00;;;;;;4937814;29;20802;-68
2022/06/03 14:05:50;;;;;;;13.63;12.93;;;26.90;17.20;;;;;;4937648;29;20415;-68
2022/06/03 14:08:26;;;;;;;12.80;12.17;;;26.70;16.90;;;;;;4937640;29;20449;-68
2022/06/03 14:11:07;;;;;;;12.97;12.27;;;26.60;19.10;;;;;;4928190;29;20491;-68
2022/06/03 14:13:47;;;;;;;11.87;11.17;;;26.40;19.90;;;;;;4918405;29;20426;-68
2022/06/03 14:16:20;;;;;;;12.10;11.40;;;26.20;18.90;;;;;;4920515;29;20825;-67
2022/06/03 14:18:51;;;;;;;11.90;11.10;;;26.10;19.10;;;;;;4937458;29;20418;-67